Time;durP1;ratioP1;P1;durP2;ratioP2;P2;SDS_P1;SDS_P2;PMS_P1;PMS_P2;Temp;Humidity;BMP_temperature;BMP_pressure;BME280_temperature;BME280_humidity;BME280_pressure;Samples;Min_cycle;Max_cycle;Signal;HPM_P1;HPM_P2
2022/08/04 00:02:22;;;;;;;11.38;5.32;;;22.90;72.60;;;;;;5055558;28;20476;-71
2022/08/04 00:05:02;;;;;;;13.40;5.80;;;22.80;72.90;;;;;;5051783;28;20047;-70
2022/08/04 00:07:51;;;;;;;11.73;6.03;;;22.80;72.90;;;;;;5065351;28;20093;-72
2022/08/04 00:10:19;;;;;;;11.38;5.32;;;22.80;72.90;;;;;;5061382;28;20056;-70
2022/08/04 00:12:48;;;;;;;10.13;4.88;;;22.70;72.80;;;;;;5061675;28;20044;-71
2022/08/04 00:15:15;;;;;;;13.15;5.45;;;22.60;72.90;;;;;;5059386;28;20048;-73
2022/08/04 00:17:49;;;;;;;9.95;5.47;;;22.60;73.00;;;;;;5058856;28;20028;-72
2022/08/04 00:20:19;;;;;;;11.93;5.43;;;22.60;73.20;;;;;;5060966;28;20053;-73
2022/08/04 00:22:47;;;;;;;9.70;4.35;;;22.50;73.30;;;;;;5058033;28;20048;-72
2022/08/04 00:25:13;;;;;;;10.77;4.63;;;22.50;73.20;;;;;;5053030;28;20384;-72
2022/08/04 00:27:39;;;;;;;10.48;5.18;;;22.50;73.10;;;;;;5059438;28;20464;-71
2022/08/04 00:30:06;;;;;;;10.80;5.10;;;22.60;73.00;;;;;;5052164;28;20041;-70
2022/08/04 00:32:32;;;;;;;9.40;5.00;;;22.60;73.00;;;;;;5060222;28;20028;-71
2022/08/04 00:34:58;;;;;;;9.40;5.47;;;22.60;72.90;;;;;;5059053;28;20049;-71
2022/08/04 00:37:25;;;;;;;11.85;5.68;;;22.50;72.90;;;;;;5061419;28;20376;-71
2022/08/04 00:39:55;;;;;;;10.98;4.95;;;22.50;72.90;;;;;;5057625;28;20039;-73
2022/08/04 00:42:48;;;;;;;12.15;5.43;;;22.50;73.00;;;;;;5059483;28;20048;-71
2022/08/04 00:45:19;;;;;;;11.45;6.20;;;22.40;73.20;;;;;;5060221;28;20193;-71
2022/08/04 00:48:00;;;;;;;12.77;4.95;;;22.30;73.20;;;;;;5059620;28;20088;-72
2022/08/04 00:51:08;;;;;;;10.32;5.60;;;22.30;73.30;;;;;;5059372;28;21029;-71
2022/08/04 00:53:51;;;;;;;13.15;6.20;;;22.30;73.40;;;;;;5073974;28;20419;-70
2022/08/04 00:56:48;;;;;;;12.77;6.00;;;22.20;73.50;;;;;;5057268;28;20098;-71
2022/08/04 00:59:32;;;;;;;12.15;5.93;;;22.20;73.40;;;;;;5003571;28;20046;-70
2022/08/04 01:02:14;;;;;;;10.73;5.95;;;22.10;73.40;;;;;;5053788;28;20980;-72
2022/08/04 01:04:49;;;;;;;11.68;5.78;;;22.10;73.20;;;;;;5063751;28;20106;-71
2022/08/04 01:07:39;;;;;;;12.77;6.28;;;22.10;73.00;;;;;;5050637;28;20507;-72
2022/08/04 01:10:55;;;;;;;11.32;6.10;;;22.10;72.90;;;;;;5060551;28;20033;-71
2022/08/04 01:13:36;;;;;;;14.85;7.15;;;22.10;72.70;;;;;;5041815;28;20570;-71
2022/08/04 01:16:04;;;;;;;10.05;6.28;;;22.10;72.70;;;;;;5060455;28;20352;-71
2022/08/04 01:18:48;;;;;;;13.25;6.25;;;22.10;72.70;;;;;;5064450;28;20028;-72
2022/08/04 01:21:14;;;;;;;;;;;22.10;72.60;;;;;;5064769;28;20036;-71
2022/08/04 01:23:56;;;;;;;10.23;5.88;;;22.00;72.80;;;;;;5063395;28;19919;-71
2022/08/04 01:26:49;;;;;;;12.38;6.57;;;22.00;72.70;;;;;;5061232;28;20090;-73
2022/08/04 01:29:15;;;;;;;12.55;6.57;;;21.90;72.70;;;;;;5052085;28;20025;-71
2022/08/04 01:32:00;;;;;;;10.65;5.93;;;21.90;72.60;;;;;;5059253;28;20070;-72
2022/08/04 01:34:28;;;;;;;;;;;21.90;72.70;;;;;;5063128;28;20040;-71
2022/08/04 01:37:00;;;;;;;11.85;5.68;;;21.90;72.50;;;;;;5060537;28;19965;-70
2022/08/04 01:39:40;;;;;;;12.15;6.38;;;21.80;72.70;;;;;;5065369;28;20041;-71
2022/08/04 01:42:06;;;;;;;9.85;6.05;;;21.90;72.70;;;;;;5064688;28;20029;-71
2022/08/04 01:44:34;;;;;;;13.88;6.88;;;21.90;72.70;;;;;;5059185;28;20028;-70
2022/08/04 01:47:01;;;;;;;12.00;6.65;;;21.80;72.70;;;;;;5065591;28;20035;-71
2022/08/04 01:49:29;;;;;;;12.43;6.07;;;21.90;72.70;;;;;;5063790;28;20306;-73
2022/08/04 01:51:56;;;;;;;9.48;5.78;;;21.90;72.70;;;;;;5062337;28;20439;-71
2022/08/04 01:54:22;;;;;;;11.57;6.35;;;21.90;72.70;;;;;;5066675;28;20143;-71
2022/08/04 01:56:53;;;;;;;11.10;5.85;;;21.90;72.70;;;;;;5060718;28;20029;-71
2022/08/04 01:59:20;;;;;;;9.75;6.22;;;21.90;72.70;;;;;;5060135;28;20086;-71
2022/08/04 02:01:46;;;;;;;9.57;5.38;;;21.90;72.70;;;;;;5053978;28;20037;-72
2022/08/04 02:04:16;;;;;;;13.65;6.03;;;21.90;72.80;;;;;;5062422;28;20036;-71
2022/08/04 02:07:02;;;;;;;11.85;5.82;;;21.90;72.80;;;;;;5062213;28;20040;-72
2022/08/04 02:10:09;;;;;;;12.52;5.95;;;21.90;72.70;;;;;;5062526;28;20063;-72
2022/08/04 02:12:56;;;;;;;12.75;5.90;;;21.90;72.70;;;;;;4998655;28;20078;-71
2022/08/04 02:15:29;;;;;;;12.93;5.72;;;21.70;72.80;;;;;;4998064;28;20449;-71
2022/08/04 02:18:04;;;;;;;12.02;5.35;;;21.70;73.10;;;;;;5040481;28;20563;-72
2022/08/04 02:20:36;;;;;;;10.80;5.57;;;21.70;73.10;;;;;;5061929;28;20124;-71
2022/08/04 02:23:13;;;;;;;10.00;5.50;;;21.80;73.00;;;;;;5057669;28;20032;-71
2022/08/04 02:26:03;;;;;;;12.63;5.50;;;21.70;73.10;;;;;;5062784;28;20170;-71
2022/08/04 02:29:10;;;;;;;12.85;5.60;;;21.60;73.30;;;;;;5058536;28;20066;-71
2022/08/04 02:31:45;;;;;;;10.55;6.10;;;21.50;73.90;;;;;;5059651;28;20036;-71
2022/08/04 02:34:32;;;;;;;11.77;6.15;;;21.40;74.10;;;;;;5058367;28;20033;-72
2022/08/04 02:36:59;;;;;;;12.10;5.35;;;21.30;74.20;;;;;;5065679;28;20060;-71
2022/08/04 02:39:31;;;;;;;11.32;5.32;;;21.20;74.60;;;;;;5061489;28;20029;-72
2022/08/04 02:41:58;;;;;;;11.73;5.82;;;21.10;74.90;;;;;;5065169;28;20040;-71
2022/08/04 02:44:27;;;;;;;14.55;5.72;;;21.00;75.30;;;;;;5061593;28;20039;-71
2022/08/04 02:46:54;;;;;;;11.27;5.28;;;20.90;75.70;;;;;;5063417;28;20048;-71
2022/08/04 02:49:23;;;;;;;11.73;5.88;;;20.90;75.80;;;;;;5068202;28;20384;-73
2022/08/04 02:51:55;;;;;;;12.00;5.60;;;20.80;76.40;;;;;;5052325;28;20494;-71
2022/08/04 02:54:30;;;;;;;11.35;6.10;;;20.70;76.60;;;;;;5055638;28;20733;-71
2022/08/04 02:56:58;;;;;;;12.82;6.20;;;20.60;76.90;;;;;;5060076;28;20131;-71
2022/08/04 02:59:26;;;;;;;11.52;5.97;;;20.60;77.20;;;;;;5057735;28;20029;-71
2022/08/04 03:01:55;;;;;;;10.82;5.45;;;20.60;77.20;;;;;;5067992;28;20036;-71
2022/08/04 03:04:45;;;;;;;9.70;5.75;;;20.60;77.30;;;;;;5058717;28;20045;-70
2022/08/04 03:07:51;;;;;;;11.63;5.97;;;20.60;77.60;;;;;;5060761;28;20139;-71
2022/08/04 03:10:21;;;;;;;10.45;6.05;;;20.60;77.80;;;;;;5059990;28;20072;-71
2022/08/04 03:12:53;;;;;;;12.07;5.75;;;20.60;77.80;;;;;;5057853;28;20037;-71
2022/08/04 03:15:47;;;;;;;10.13;5.47;;;20.60;77.90;;;;;;5061664;28;20479;-71
2022/08/04 03:18:40;;;;;;;12.32;5.65;;;20.50;78.10;;;;;;5054479;28;20391;-71
2022/08/04 03:21:06;;;;;;;14.05;6.18;;;20.50;78.10;;;;;;5060556;28;20028;-71
2022/08/04 03:23:56;;;;;;;9.73;5.50;;;20.50;78.20;;;;;;5059910;28;20041;-71
2022/08/04 03:26:59;;;;;;;11.00;5.68;;;20.60;78.20;;;;;;5059132;28;20043;-72
2022/08/04 03:29:55;;;;;;;13.68;5.90;;;20.60;78.20;;;;;;5057943;28;20645;-70
2022/08/04 03:32:59;;;;;;;14.00;5.88;;;20.50;78.40;;;;;;5054440;28;20059;-70
2022/08/04 03:36:02;;;;;;;13.25;6.00;;;20.50;78.50;;;;;;5058401;28;20048;-71
2022/08/04 03:38:46;;;;;;;11.27;5.78;;;20.40;78.80;;;;;;5059926;28;20033;-71
2022/08/04 03:41:51;;;;;;;12.98;5.93;;;20.40;78.90;;;;;;5058016;28;20048;-70
2022/08/04 03:44:35;;;;;;;14.32;5.93;;;20.40;79.10;;;;;;5043221;28;20512;-71
2022/08/04 03:47:13;;;;;;;;;;;20.40;79.10;;;;;;5056309;28;20372;-73
2022/08/04 03:49:56;;;;;;;10.30;5.85;;;20.40;79.10;;;;;;5060918;28;19919;-70
2022/08/04 03:55:43;;;;;;;12.77;6.05;;;20.30;79.30;;;;;;5055058;28;20179;-73
2022/08/04 03:58:24;;;;;;;10.32;6.32;;;20.30;79.50;;;;;;5055586;28;20177;-73
2022/08/04 04:01:19;;;;;;;12.00;5.95;;;20.20;79.80;;;;;;5058348;28;20494;-71
2022/08/04 04:03:59;;;;;;;10.55;5.75;;;20.20;80.20;;;;;;5061776;28;20039;-71
2022/08/04 04:06:47;;;;;;;10.70;6.03;;;20.10;80.40;;;;;;5056092;28;20339;-71
2022/08/04 04:09:41;;;;;;;10.35;5.80;;;20.10;80.60;;;;;;5062574;28;20101;-71
2022/08/04 04:12:28;;;;;;;14.50;7.47;;;20.10;80.80;;;;;;5053629;28;20044;-71
2022/08/04 04:15:19;;;;;;;11.55;6.25;;;20.00;81.20;;;;;;5060820;28;20094;-71
2022/08/04 04:18:31;;;;;;;13.45;6.75;;;20.00;81.40;;;;;;5059234;28;20033;-73
2022/08/04 04:21:21;;;;;;;12.18;6.60;;;19.90;81.50;;;;;;5053417;28;20536;-73
2022/08/04 04:24:15;;;;;;;12.23;7.20;;;20.00;81.60;;;;;;5049307;28;20037;-71
2022/08/04 04:27:05;;;;;;;15.30;6.53;;;19.90;81.60;;;;;;5055996;28;20033;-72
2022/08/04 04:29:49;;;;;;;13.35;7.55;;;20.00;81.70;;;;;;5058767;28;20056;-72
2022/08/04 04:32:21;;;;;;;11.77;7.38;;;20.00;81.70;;;;;;5055617;28;20032;-73
2022/08/04 04:34:49;;;;;;;13.98;7.97;;;19.90;82.20;;;;;;5061083;28;20343;-71
2022/08/04 04:37:40;;;;;;;13.07;8.00;;;19.90;82.30;;;;;;5060907;28;20124;-73
2022/08/04 04:40:30;;;;;;;15.00;8.48;;;19.80;82.60;;;;;;5062068;28;20024;-71
2022/08/04 04:43:17;;;;;;;15.98;8.88;;;19.80;82.70;;;;;;5055095;28;20047;-71
2022/08/04 04:45:59;;;;;;;15.65;9.45;;;19.70;83.10;;;;;;5064103;28;20040;-71
2022/08/04 04:48:27;;;;;;;18.70;11.60;;;19.60;83.60;;;;;;5060503;28;20480;-71
2022/08/04 04:51:22;;;;;;;18.70;12.50;;;19.60;84.10;;;;;;5067335;28;20907;-71
2022/08/04 04:54:03;;;;;;;21.75;13.02;;;19.60;84.30;;;;;;5058418;28;20623;-73
2022/08/04 04:56:50;;;;;;;23.42;13.98;;;19.70;84.50;;;;;;5056679;28;20501;-71
2022/08/04 04:59:22;;;;;;;23.00;14.15;;;19.70;84.60;;;;;;5066611;28;20059;-71
2022/08/04 05:02:18;;;;;;;23.65;14.60;;;19.70;84.80;;;;;;5069857;28;20110;-71
2022/08/04 05:05:02;;;;;;;26.83;14.52;;;19.80;84.80;;;;;;5055786;28;20583;-72
2022/08/04 05:08:05;;;;;;;23.65;15.55;;;19.80;84.90;;;;;;5063469;28;20048;-71
2022/08/04 05:10:57;;;;;;;25.23;15.73;;;19.90;84.90;;;;;;5049053;28;20487;-71
2022/08/04 05:13:36;;;;;;;24.80;16.33;;;19.80;85.00;;;;;;5034340;28;20063;-71
2022/08/04 05:16:32;;;;;;;31.88;18.85;;;19.90;85.30;;;;;;5058228;28;20045;-72
2022/08/04 05:19:18;;;;;;;26.98;16.67;;;19.90;85.40;;;;;;5053611;28;20082;-71
2022/08/04 05:21:48;;;;;;;33.13;17.98;;;20.00;85.50;;;;;;5064099;28;21382;-72
2022/08/04 05:24:18;;;;;;;35.95;19.50;;;20.10;85.50;;;;;;5060908;28;20063;-71
2022/08/04 05:26:58;;;;;;;31.15;19.30;;;20.10;85.60;;;;;;5063730;28;20028;-72
2022/08/04 05:29:32;;;;;;;32.65;19.15;;;20.10;85.90;;;;;;5061828;28;20053;-71
2022/08/04 05:32:00;;;;;;;31.40;19.77;;;20.20;85.80;;;;;;5068173;28;20140;-71
2022/08/04 05:34:34;;;;;;;31.95;19.73;;;20.20;86.20;;;;;;5059728;28;20123;-71
2022/08/04 05:37:07;;;;;;;33.78;20.15;;;20.30;86.10;;;;;;5059990;28;20036;-72
2022/08/04 05:39:41;;;;;;;31.27;19.85;;;20.30;86.10;;;;;;5060750;28;20052;-72
2022/08/04 05:42:10;;;;;;;24.65;14.50;;;20.30;86.20;;;;;;5061324;28;20507;-72
2022/08/04 05:44:37;;;;;;;29.17;18.35;;;20.50;86.90;;;;;;5065117;28;20056;-72
2022/08/04 05:47:04;;;;;;;25.05;16.48;;;20.60;85.70;;;;;;5060099;28;20077;-72
2022/08/04 05:49:31;;;;;;;28.67;18.10;;;20.80;85.40;;;;;;5057761;28;20609;-72
2022/08/04 05:52:00;;;;;;;30.90;16.77;;;21.00;84.30;;;;;;5063202;28;20032;-72
2022/08/04 05:54:28;;;;;;;26.13;15.18;;;21.10;84.20;;;;;;5062557;28;20067;-72
2022/08/04 05:56:55;;;;;;;25.77;17.80;;;21.10;84.20;;;;;;5059917;28;20028;-70
2022/08/04 05:59:24;;;;;;;21.08;14.18;;;21.10;84.30;;;;;;5064243;28;20044;-71
2022/08/04 06:01:51;;;;;;;23.65;16.95;;;21.20;84.40;;;;;;5062757;28;20089;-72
2022/08/04 06:04:18;;;;;;;23.92;17.17;;;21.10;83.90;;;;;;5062129;28;20028;-71
2022/08/04 06:06:45;;;;;;;23.17;18.48;;;21.10;84.40;;;;;;5065251;28;20036;-71
2022/08/04 06:09:10;;;;;;;21.38;17.25;;;21.10;84.30;;;;;;5063958;28;20448;-71
2022/08/04 06:11:39;;;;;;;20.67;16.60;;;21.00;84.50;;;;;;5061205;28;20128;-71
2022/08/04 06:14:08;;;;;;;20.55;16.70;;;21.10;84.50;;;;;;5057970;28;20036;-72
2022/08/04 06:16:37;;;;;;;20.35;15.15;;;21.20;83.90;;;;;;5061972;28;20047;-73
2022/08/04 06:19:06;;;;;;;21.42;16.83;;;21.30;84.00;;;;;;5059343;28;20036;-71
2022/08/04 06:21:33;;;;;;;21.45;16.98;;;21.30;83.60;;;;;;5062627;28;20065;-71
2022/08/04 06:24:00;;;;;;;21.88;16.45;;;21.30;83.70;;;;;;5061902;28;20181;-72
2022/08/04 06:26:28;;;;;;;22.60;16.77;;;21.40;83.40;;;;;;5064996;28;20047;-71
2022/08/04 06:28:56;;;;;;;21.92;17.33;;;21.30;83.50;;;;;;5062698;28;20028;-72
2022/08/04 06:34:18;;;;;;;19.55;15.73;;;21.30;83.80;;;;;;5054032;28;20036;-71
2022/08/04 06:36:44;;;;;;;19.75;15.50;;;21.20;84.10;;;;;;5063855;28;20116;-71
2022/08/04 06:39:10;;;;;;;18.95;14.88;;;21.20;84.10;;;;;;5065381;28;20160;-71
2022/08/04 06:41:37;;;;;;;19.58;15.68;;;21.20;83.90;;;;;;5064516;28;20086;-73
2022/08/04 06:44:06;;;;;;;19.88;14.88;;;21.30;83.60;;;;;;5062843;28;20534;-71
2022/08/04 06:46:35;;;;;;;21.77;15.90;;;21.30;83.60;;;;;;5065542;28;20451;-70
2022/08/04 06:49:02;;;;;;;20.20;15.60;;;21.40;83.50;;;;;;5057602;28;20124;-71
2022/08/04 06:51:30;;;;;;;21.58;16.65;;;21.30;83.60;;;;;;5058874;28;20037;-72
2022/08/04 06:53:56;;;;;;;20.55;16.25;;;21.10;83.90;;;;;;5063326;28;20040;-72
2022/08/04 06:56:24;;;;;;;19.25;15.48;;;21.10;84.10;;;;;;5065132;28;20056;-73
2022/08/04 06:58:52;;;;;;;19.75;14.90;;;21.10;84.40;;;;;;5062716;28;20051;-73
2022/08/04 07:01:19;;;;;;;16.70;13.40;;;21.30;84.20;;;;;;5061085;28;20369;-72
2022/08/04 07:03:45;;;;;;;17.63;12.98;;;21.60;83.80;;;;;;5065366;28;20053;-73
2022/08/04 07:06:12;;;;;;;19.58;15.60;;;21.80;82.80;;;;;;5061126;28;20494;-74
2022/08/04 07:08:38;;;;;;;20.10;15.52;;;21.90;81.90;;;;;;5058563;28;20094;-73
2022/08/04 07:11:05;;;;;;;18.85;15.48;;;22.00;81.70;;;;;;5062557;28;20083;-73
2022/08/04 07:13:31;;;;;;;21.08;16.10;;;22.10;81.70;;;;;;5060360;28;20487;-72
2022/08/04 07:15:59;;;;;;;17.35;15.18;;;22.00;81.40;;;;;;5065130;28;20369;-72
2022/08/04 07:18:25;;;;;;;18.67;15.73;;;22.00;81.50;;;;;;5062646;28;20452;-73
2022/08/04 07:20:51;;;;;;;21.45;15.60;;;22.10;81.40;;;;;;5060636;28;20140;-72
2022/08/04 07:23:23;;;;;;;17.67;14.60;;;22.10;80.90;;;;;;5061891;28;20112;-73
2022/08/04 07:25:51;;;;;;;17.35;15.30;;;22.10;81.20;;;;;;5062301;28;20575;-72
2022/08/04 07:28:17;;;;;;;16.13;14.45;;;22.10;80.80;;;;;;5061821;28;20500;-73
2022/08/04 07:30:46;;;;;;;17.95;13.95;;;21.90;80.90;;;;;;5062546;28;20044;-72
2022/08/04 07:33:12;;;;;;;19.55;15.18;;;21.90;81.40;;;;;;5062455;28;20476;-74
2022/08/04 07:35:38;;;;;;;14.80;12.32;;;21.90;81.60;;;;;;5064227;28;20298;-73
2022/08/04 07:38:04;;;;;;;18.25;15.15;;;21.90;82.30;;;;;;5068375;28;20634;-73
2022/08/04 07:40:31;;;;;;;25.05;14.52;;;21.90;81.60;;;;;;5064990;28;20036;-73
2022/08/04 07:42:57;;;;;;;15.70;13.88;;;21.90;81.50;;;;;;5061523;28;20040;-73
2022/08/04 07:45:24;;;;;;;17.77;13.73;;;22.00;81.60;;;;;;5067682;28;20404;-74
2022/08/04 07:47:49;;;;;;;17.10;14.45;;;21.90;81.60;;;;;;5058028;28;20426;-74
2022/08/04 07:50:16;;;;;;;16.63;14.23;;;22.00;81.20;;;;;;5058991;28;20089;-73
2022/08/04 07:52:44;;;;;;;15.70;11.60;;;22.00;81.10;;;;;;5059697;28;20063;-74
2022/08/04 07:55:10;;;;;;;16.27;11.05;;;22.00;81.60;;;;;;5059045;28;20130;-73
2022/08/04 07:57:36;;;;;;;12.52;10.30;;;22.10;81.70;;;;;;5057335;28;20587;-73
2022/08/04 08:00:04;;;;;;;15.80;13.40;;;22.10;80.90;;;;;;5056620;28;20744;-74
2022/08/04 08:02:31;;;;;;;15.07;11.27;;;22.20;80.40;;;;;;5052427;28;20150;-74
2022/08/04 08:04:57;;;;;;;17.67;14.05;;;22.20;80.80;;;;;;5062914;28;20499;-73
2022/08/04 08:07:22;;;;;;;15.85;13.18;;;22.10;80.50;;;;;;5060902;28;20067;-73
2022/08/04 08:09:48;;;;;;;17.42;14.10;;;22.10;80.80;;;;;;5059754;28;20139;-73
2022/08/04 08:12:14;;;;;;;16.75;13.43;;;22.10;80.80;;;;;;5059210;28;20045;-74
2022/08/04 08:14:41;;;;;;;16.90;12.90;;;22.10;81.20;;;;;;5060717;28;20055;-74
2022/08/04 08:17:07;;;;;;;15.98;12.93;;;22.20;80.70;;;;;;5058725;28;20061;-73
2022/08/04 08:19:35;;;;;;;13.73;11.60;;;22.10;80.50;;;;;;5061270;28;21380;-75
2022/08/04 08:22:02;;;;;;;15.80;12.88;;;22.10;80.80;;;;;;5056187;28;20442;-75
2022/08/04 08:24:29;;;;;;;14.55;11.63;;;22.10;80.60;;;;;;5055551;28;20033;-74
2022/08/04 08:26:55;;;;;;;13.93;12.15;;;22.10;81.30;;;;;;5051427;28;20513;-73
2022/08/04 08:29:22;;;;;;;14.32;10.80;;;22.10;80.50;;;;;;5058993;28;20170;-74
2022/08/04 08:31:48;;;;;;;16.80;12.85;;;22.10;81.00;;;;;;5059291;28;20702;-73
2022/08/04 08:34:14;;;;;;;14.80;12.40;;;22.20;80.10;;;;;;5060591;28;20045;-73
2022/08/04 08:36:51;;;;;;;14.05;12.55;;;22.20;80.20;;;;;;5062532;28;20036;-73
2022/08/04 08:39:17;;;;;;;12.65;10.65;;;22.30;80.00;;;;;;5080984;28;20036;-74
2022/08/04 08:42:05;;;;;;;13.32;10.65;;;22.40;80.00;;;;;;5065858;28;20081;-73
2022/08/04 08:45:08;;;;;;;13.30;10.40;;;22.50;79.80;;;;;;5057012;28;20127;-73
2022/08/04 08:47:52;;;;;;;14.35;11.93;;;22.60;79.40;;;;;;5059304;28;20399;-73
2022/08/04 08:50:57;;;;;;;15.57;12.38;;;22.50;79.10;;;;;;5060296;28;20032;-73
2022/08/04 08:53:39;;;;;;;16.02;12.55;;;22.60;78.80;;;;;;5058979;28;20064;-73
2022/08/04 08:56:35;;;;;;;15.23;11.57;;;22.70;78.60;;;;;;5062102;28;20585;-73
2022/08/04 08:59:22;;;;;;;16.52;12.60;;;22.70;78.20;;;;;;5040832;28;20032;-74
2022/08/04 09:01:59;;;;;;;15.35;12.13;;;22.70;78.40;;;;;;5045297;28;20408;-74
2022/08/04 09:04:43;;;;;;;15.77;13.57;;;22.80;78.20;;;;;;5044754;28;20315;-75
2022/08/04 09:07:38;;;;;;;16.15;12.63;;;22.70;78.50;;;;;;5044196;28;20711;-72
2022/08/04 09:10:13;;;;;;;15.32;11.27;;;23.00;77.70;;;;;;5049127;28;20032;-72
2022/08/04 09:12:52;;;;;;;15.73;11.35;;;23.20;76.90;;;;;;5046710;28;20247;-73
2022/08/04 09:15:47;;;;;;;14.25;11.23;;;23.10;77.00;;;;;;5046608;28;20128;-72
2022/08/04 09:18:28;;;;;;;13.52;11.02;;;23.10;77.40;;;;;;5030035;28;20491;-72
2022/08/04 09:21:00;;;;;;;12.73;11.18;;;23.60;75.60;;;;;;5043687;28;20032;-73
2022/08/04 09:23:44;;;;;;;11.60;7.80;;;23.90;74.60;;;;;;5045425;28;20056;-74
2022/08/04 09:26:14;;;;;;;;;;;24.10;73.70;;;;;;5060353;28;20032;-72
2022/08/04 09:29:16;;;;;;;13.35;9.25;;;24.20;72.10;;;;;;5061480;28;20062;-74
2022/08/04 09:32:03;;;;;;;11.90;9.55;;;24.50;72.00;;;;;;5064703;28;20116;-73
2022/08/04 09:34:54;;;;;;;12.63;7.82;;;24.70;70.60;;;;;;5058893;28;20563;-73
2022/08/04 09:37:37;;;;;;;12.55;8.35;;;25.20;69.50;;;;;;5062984;28;20035;-72
2022/08/04 09:40:18;;;;;;;13.35;8.90;;;25.60;67.50;;;;;;5058275;28;20032;-73
2022/08/04 09:42:56;;;;;;;12.43;8.52;;;25.80;65.60;;;;;;5058335;28;20112;-73
2022/08/04 09:45:31;;;;;;;10.07;7.18;;;26.20;65.00;;;;;;5060082;28;20140;-72
2022/08/04 09:48:08;;;;;;;12.32;9.00;;;26.60;63.10;;;;;;5055110;28;20058;-72
2022/08/04 09:50:38;;;;;;;12.05;9.23;;;26.50;63.40;;;;;;5056187;28;20415;-73
2022/08/04 09:53:29;;;;;;;12.85;8.00;;;26.70;62.50;;;;;;5061863;28;21000;-73
2022/08/04 09:56:00;;;;;;;12.80;7.40;;;27.00;62.50;;;;;;5056953;28;20047;-73
2022/08/04 09:58:47;;;;;;;11.23;6.68;;;27.10;61.90;;;;;;5059124;28;20103;-72
2022/08/04 10:01:17;;;;;;;10.20;7.20;;;26.80;61.70;;;;;;5054309;28;20079;-73
2022/08/04 10:03:49;;;;;;;9.40;6.65;;;26.70;61.90;;;;;;5059617;28;20048;-72
2022/08/04 10:06:50;;;;;;;11.50;7.18;;;26.40;62.30;;;;;;5058825;28;20033;-73
2022/08/04 10:09:40;;;;;;;8.38;5.60;;;26.10;63.20;;;;;;5044589;28;20106;-73
2022/08/04 10:12:23;;;;;;;9.15;7.05;;;26.40;63.00;;;;;;5056421;28;20044;-72
2022/08/04 10:14:56;;;;;;;12.15;6.88;;;26.70;60.90;;;;;;5057149;28;20053;-72
2022/08/04 10:17:37;;;;;;;9.82;7.38;;;27.00;60.80;;;;;;5056834;28;20433;-73
2022/08/04 10:20:23;;;;;;;12.02;6.10;;;27.20;59.20;;;;;;5056772;28;20387;-72
2022/08/04 10:23:37;;;;;;;10.50;5.95;;;27.40;57.40;;;;;;5054968;28;20090;-73
2022/08/04 10:26:32;;;;;;;11.40;6.25;;;27.80;57.80;;;;;;5046714;28;20045;-74
2022/08/04 10:29:09;;;;;;;8.38;6.00;;;27.60;58.70;;;;;;5045565;28;20036;-71
2022/08/04 10:31:42;;;;;;;9.10;6.07;;;27.80;56.80;;;;;;5056922;28;20049;-73
2022/08/04 10:34:17;;;;;;;11.50;7.03;;;27.80;58.20;;;;;;5061425;28;20453;-72
2022/08/04 10:37:23;;;;;;;10.13;6.35;;;27.80;58.70;;;;;;5055971;28;20044;-73
2022/08/04 10:43:12;;;;;;;10.80;5.68;;;28.60;56.70;;;;;;5050780;28;20036;-74
2022/08/04 10:45:45;;;;;;;9.40;5.60;;;28.50;55.70;;;;;;5049223;28;20117;-73
2022/08/04 10:48:23;;;;;;;11.47;5.63;;;28.60;55.60;;;;;;5057633;28;20106;-71
2022/08/04 10:51:35;;;;;;;10.23;5.55;;;28.50;55.70;;;;;;5059521;28;20155;-72
2022/08/04 10:54:14;;;;;;;8.77;5.55;;;28.80;54.90;;;;;;5051429;28;20055;-72
2022/08/04 10:56:45;;;;;;;11.13;5.60;;;28.60;56.20;;;;;;5058863;28;20576;-72
2022/08/04 10:59:17;;;;;;;10.63;5.82;;;28.70;55.50;;;;;;5052566;28;20276;-72
2022/08/04 11:01:47;;;;;;;8.68;5.22;;;28.60;55.20;;;;;;5055910;28;20051;-73
2022/08/04 11:04:29;;;;;;;10.25;5.65;;;28.60;54.80;;;;;;5056438;28;20043;-73
2022/08/04 11:06:57;;;;;;;10.40;4.85;;;28.40;56.90;;;;;;5056843;28;20123;-73
2022/08/04 11:09:23;;;;;;;10.27;5.57;;;28.50;55.90;;;;;;5057263;28;20436;-73
2022/08/04 11:12:02;;;;;;;8.85;3.88;;;28.60;55.40;;;;;;5054660;28;20119;-72
2022/08/04 11:14:54;;;;;;;8.75;5.55;;;28.70;55.70;;;;;;5055915;28;20133;-73
2022/08/04 11:17:38;;;;;;;10.93;6.50;;;28.50;55.00;;;;;;5056392;28;20044;-73
2022/08/04 11:20:32;;;;;;;9.88;4.88;;;28.30;55.30;;;;;;5051376;28;20029;-73
2022/08/04 11:23:04;;;;;;;;;;;28.60;55.10;;;;;;5054382;28;20040;-73
2022/08/04 11:25:54;;;;;;;8.80;4.70;;;29.10;54.30;;;;;;5054184;28;19939;-73
2022/08/04 11:28:49;;;;;;;6.57;3.78;;;29.60;53.10;;;;;;5053118;28;20480;-73
2022/08/04 11:31:50;;;;;;;9.07;4.93;;;29.70;52.20;;;;;;5051421;28;20464;-73
2022/08/04 11:34:19;;;;;;;9.50;5.32;;;30.00;51.30;;;;;;5049037;28;20127;-72
2022/08/04 11:37:12;;;;;;;8.45;4.63;;;30.20;49.40;;;;;;5061039;28;20063;-72
2022/08/04 11:40:02;;;;;;;11.18;4.60;;;30.40;50.00;;;;;;5033570;28;20033;-72
2022/08/04 11:42:41;;;;;;;11.18;4.28;;;30.60;49.20;;;;;;5056783;28;20029;-71
2022/08/04 11:45:15;;;;;;;7.32;4.20;;;30.50;49.30;;;;;;5060792;28;20032;-72
2022/08/04 11:47:51;;;;;;;7.93;4.05;;;30.80;48.40;;;;;;5063139;28;20041;-72
2022/08/04 11:50:41;;;;;;;8.07;3.88;;;30.90;47.40;;;;;;5065202;28;20116;-72
2022/08/04 11:53:15;;;;;;;8.20;3.63;;;31.00;48.10;;;;;;5058259;28;20047;-71
2022/08/04 11:55:43;;;;;;;8.23;4.25;;;30.60;49.40;;;;;;5061841;28;20052;-72
2022/08/04 11:58:09;;;;;;;10.38;4.63;;;30.60;47.50;;;;;;5063436;28;20533;-73
2022/08/04 12:00:41;;;;;;;9.60;3.65;;;30.20;47.70;;;;;;5066229;28;20040;-72
2022/08/04 12:03:22;;;;;;;8.95;3.60;;;30.10;48.40;;;;;;5054769;28;20067;-72
2022/08/04 12:06:06;;;;;;;9.23;3.13;;;30.60;48.10;;;;;;5063105;28;20132;-72
2022/08/04 12:08:56;;;;;;;7.55;3.10;;;30.80;47.20;;;;;;5068638;28;20372;-72
2022/08/04 12:12:08;;;;;;;7.32;3.00;;;30.50;47.50;;;;;;5059252;28;20590;-72
2022/08/04 12:15:12;;;;;;;8.57;2.78;;;30.10;47.50;;;;;;5051199;28;20052;-72
2022/08/04 12:17:58;;;;;;;7.57;2.70;;;30.10;47.50;;;;;;4952673;28;20105;-73
2022/08/04 12:20:28;;;;;;;9.98;2.90;;;30.50;46.60;;;;;;5005755;28;20064;-72
2022/08/04 12:22:57;;;;;;;10.13;2.67;;;30.80;45.90;;;;;;5067503;28;20041;-72
2022/08/04 12:25:39;;;;;;;7.32;3.67;;;31.10;46.40;;;;;;5062686;28;20059;-73
2022/08/04 12:28:22;;;;;;;7.07;3.13;;;30.80;45.70;;;;;;5061067;28;20584;-72
2022/08/04 12:30:55;;;;;;;6.75;3.17;;;30.70;45.60;;;;;;5061892;28;20044;-72
2022/08/04 12:33:30;;;;;;;8.43;3.10;;;30.60;46.20;;;;;;5063730;28;20046;-72
2022/08/04 12:36:11;;;;;;;7.85;2.88;;;30.60;46.20;;;;;;5059752;28;20119;-72
2022/08/04 12:38:45;;;;;;;7.88;3.28;;;30.80;45.90;;;;;;5061420;28;20480;-72
2022/08/04 12:41:15;;;;;;;9.27;2.97;;;30.90;44.70;;;;;;5062855;28;20032;-72
2022/08/04 12:43:41;;;;;;;7.68;2.80;;;31.00;44.80;;;;;;5063223;28;20450;-72
2022/08/04 12:46:19;;;;;;;5.95;2.97;;;31.00;45.00;;;;;;5064976;28;20039;-72
2022/08/04 12:48:46;;;;;;;9.77;3.10;;;31.10;43.70;;;;;;5064872;28;20063;-73
2022/08/04 12:51:12;;;;;;;8.52;2.65;;;31.20;45.50;;;;;;5059810;28;20032;-73
2022/08/04 12:53:40;;;;;;;8.73;3.05;;;31.60;44.10;;;;;;5059676;28;20693;-73
2022/08/04 12:56:11;;;;;;;11.20;3.00;;;31.70;43.80;;;;;;5061836;28;20059;-72
2022/08/04 12:58:40;;;;;;;9.30;3.20;;;31.80;42.90;;;;;;5059931;28;20047;-72
2022/08/04 13:01:20;;;;;;;12.18;3.30;;;32.00;43.20;;;;;;5063245;28;20098;-73
2022/08/04 13:03:48;;;;;;;10.38;3.22;;;32.20;42.00;;;;;;5061115;28;20123;-74
2022/08/04 13:06:15;;;;;;;8.38;3.05;;;32.30;42.90;;;;;;5059217;28;20412;-72
2022/08/04 13:08:44;;;;;;;9.68;3.42;;;32.20;43.10;;;;;;5065510;28;20488;-73
2022/08/04 13:11:10;;;;;;;6.53;2.83;;;32.30;42.70;;;;;;5061255;28;20052;-72
2022/08/04 13:13:38;;;;;;;6.97;2.83;;;32.10;42.30;;;;;;5067493;28;20037;-72
2022/08/04 13:16:07;;;;;;;10.40;4.05;;;31.70;43.40;;;;;;5067726;28;20040;-72
2022/08/04 13:18:41;;;;;;;8.10;3.42;;;31.00;44.60;;;;;;5067179;28;20040;-73
2022/08/04 13:21:20;;;;;;;8.40;3.28;;;31.00;44.60;;;;;;5062516;28;20049;-72
2022/08/04 13:23:51;;;;;;;9.93;3.75;;;30.60;45.90;;;;;;5059832;28;20043;-72
2022/08/04 13:26:18;;;;;;;8.80;3.75;;;30.30;48.90;;;;;;5064213;28;20395;-73
2022/08/04 13:28:47;;;;;;;9.65;3.55;;;29.90;49.90;;;;;;5069644;28;20049;-72
2022/08/04 13:31:19;;;;;;;8.95;3.75;;;30.00;50.40;;;;;;5064323;28;20032;-73
2022/08/04 13:33:48;;;;;;;9.02;4.10;;;30.00;50.10;;;;;;5064947;28;20453;-74
2022/08/04 13:36:16;;;;;;;8.93;4.65;;;30.10;49.60;;;;;;5061648;28;20404;-72
2022/08/04 13:38:54;;;;;;;10.77;4.38;;;30.10;49.70;;;;;;5068913;28;20051;-72